sensor_id;sensor_type;location;lat;lon;timestamp;P1;durP1;ratioP1;P2;durP2;ratioP2
48623;SDS011;34422;45.802;16.114;2022-10-10T00:01:24;14.00;;;6.78;;
48623;SDS011;34422;45.802;16.114;2022-10-10T00:03:53;16.90;;;7.28;;
48623;SDS011;34422;45.802;16.114;2022-10-10T00:06:20;13.98;;;8.38;;
48623;SDS011;34422;45.802;16.114;2022-10-10T00:08:47;14.10;;;7.32;;
48623;SDS011;34422;45.802;16.114;2022-10-10T00:11:15;13.43;;;8.05;;
48623;SDS011;34422;45.802;16.114;2022-10-10T00:13:43;13.38;;;7.43;;
48623;SDS011;34422;45.802;16.114;2022-10-10T00:16:10;10.85;;;6.55;;
48623;SDS011;34422;45.802;16.114;2022-10-10T00:18:38;13.23;;;6.82;;
48623;SDS011;34422;45.802;16.114;2022-10-10T00:21:06;12.07;;;7.00;;
48623;SDS011;34422;45.802;16.114;2022-10-10T00:23:34;11.88;;;7.15;;
48623;SDS011;34422;45.802;16.114;2022-10-10T00:26:01;12.50;;;7.10;;
48623;SDS011;34422;45.802;16.114;2022-10-10T00:28:28;11.18;;;6.07;;
48623;SDS011;34422;45.802;16.114;2022-10-10T00:30:55;11.93;;;6.80;;
48623;SDS011;34422;45.802;16.114;2022-10-10T00:33:22;14.40;;;7.72;;
48623;SDS011;34422;45.802;16.114;2022-10-10T00:35:49;11.38;;;6.85;;
48623;SDS011;34422;45.802;16.114;2022-10-10T00:38:16;11.07;;;6.72;;
48623;SDS011;34422;45.802;16.114;2022-10-10T00:40:44;15.13;;;6.95;;
48623;SDS011;34422;45.802;16.114;2022-10-10T00:43:14;11.80;;;6.70;;
48623;SDS011;34422;45.802;16.114;2022-10-10T00:45:42;13.95;;;6.90;;
48623;SDS011;34422;45.802;16.114;2022-10-10T00:48:18;11.68;;;6.97;;
48623;SDS011;34422;45.802;16.114;2022-10-10T00:50:52;11.88;;;7.13;;
48623;SDS011;34422;45.802;16.114;2022-10-10T00:53:23;11.48;;;6.82;;
48623;SDS011;34422;45.802;16.114;2022-10-10T00:55:54;12.63;;;7.25;;
48623;SDS011;34422;45.802;16.114;2022-10-10T00:58:22;13.52;;;8.30;;
48623;SDS011;34422;45.802;16.114;2022-10-10T01:00:50;12.02;;;7.32;;
48623;SDS011;34422;45.802;16.114;2022-10-10T01:03:18;13.10;;;6.55;;
48623;SDS011;34422;45.802;16.114;2022-10-10T01:05:45;12.95;;;7.13;;
48623;SDS011;34422;45.802;16.114;2022-10-10T01:08:13;14.02;;;7.10;;
48623;SDS011;34422;45.802;16.114;2022-10-10T01:13:27;12.25;;;7.88;;
48623;SDS011;34422;45.802;16.114;2022-10-10T01:19:23;12.98;;;7.63;;
48623;SDS011;34422;45.802;16.114;2022-10-10T01:27:53;12.65;;;7.70;;
48623;SDS011;34422;45.802;16.114;2022-10-10T01:30:27;15.80;;;8.23;;
48623;SDS011;34422;45.802;16.114;2022-10-10T01:33:12;13.75;;;8.35;;
48623;SDS011;34422;45.802;16.114;2022-10-10T01:43:14;16.27;;;8.63;;
48623;SDS011;34422;45.802;16.114;2022-10-10T01:45:46;17.45;;;8.18;;
48623;SDS011;34422;45.802;16.114;2022-10-10T01:48:20;10.50;;;7.05;;
48623;SDS011;34422;45.802;16.114;2022-10-10T01:53:25;13.38;;;8.13;;
48623;SDS011;34422;45.802;16.114;2022-10-10T01:56:12;12.52;;;8.15;;
48623;SDS011;34422;45.802;16.114;2022-10-10T01:59:09;10.90;;;7.35;;
48623;SDS011;34422;45.802;16.114;2022-10-10T02:02:06;11.88;;;7.32;;
48623;SDS011;34422;45.802;16.114;2022-10-10T02:04:46;14.07;;;7.90;;
48623;SDS011;34422;45.802;16.114;2022-10-10T02:07:22;11.02;;;8.15;;
48623;SDS011;34422;45.802;16.114;2022-10-10T02:09:57;12.55;;;7.97;;
48623;SDS011;34422;45.802;16.114;2022-10-10T02:12:28;14.40;;;7.47;;
48623;SDS011;34422;45.802;16.114;2022-10-10T02:14:57;12.40;;;7.60;;
48623;SDS011;34422;45.802;16.114;2022-10-10T02:17:40;10.82;;;7.03;;
48623;SDS011;34422;45.802;16.114;2022-10-10T02:20:11;14.23;;;8.07;;
48623;SDS011;34422;45.802;16.114;2022-10-10T02:22:42;13.27;;;7.68;;
48623;SDS011;34422;45.802;16.114;2022-10-10T02:25:11;11.50;;;7.38;;
48623;SDS011;34422;45.802;16.114;2022-10-10T02:27:44;14.40;;;6.53;;
48623;SDS011;34422;45.802;16.114;2022-10-10T02:30:14;13.18;;;6.97;;
48623;SDS011;34422;45.802;16.114;2022-10-10T02:32:45;10.55;;;5.25;;
48623;SDS011;34422;45.802;16.114;2022-10-10T02:35:18;12.70;;;5.68;;
48623;SDS011;34422;45.802;16.114;2022-10-10T02:37:49;7.13;;;3.95;;
48623;SDS011;34422;45.802;16.114;2022-10-10T02:40:25;9.43;;;3.90;;
48623;SDS011;34422;45.802;16.114;2022-10-10T02:42:55;8.38;;;4.07;;
48623;SDS011;34422;45.802;16.114;2022-10-10T02:45:25;8.75;;;3.80;;
48623;SDS011;34422;45.802;16.114;2022-10-10T02:47:54;12.35;;;3.35;;
48623;SDS011;34422;45.802;16.114;2022-10-10T02:50:21;6.68;;;2.90;;
48623;SDS011;34422;45.802;16.114;2022-10-10T02:52:49;7.22;;;3.03;;
48623;SDS011;34422;45.802;16.114;2022-10-10T02:55:17;8.88;;;3.97;;
48623;SDS011;34422;45.802;16.114;2022-10-10T02:57:44;8.40;;;3.50;;
48623;SDS011;34422;45.802;16.114;2022-10-10T03:00:11;4.93;;;2.40;;
48623;SDS011;34422;45.802;16.114;2022-10-10T03:02:39;7.63;;;2.90;;
48623;SDS011;34422;45.802;16.114;2022-10-10T03:05:07;9.60;;;3.38;;
48623;SDS011;34422;45.802;16.114;2022-10-10T03:07:34;10.10;;;3.35;;
48623;SDS011;34422;45.802;16.114;2022-10-10T03:10:02;5.82;;;2.92;;
48623;SDS011;34422;45.802;16.114;2022-10-10T03:12:31;5.78;;;2.45;;
48623;SDS011;34422;45.802;16.114;2022-10-10T03:14:58;7.57;;;3.53;;
48623;SDS011;34422;45.802;16.114;2022-10-10T03:17:24;5.30;;;2.63;;
48623;SDS011;34422;45.802;16.114;2022-10-10T03:19:51;9.93;;;3.22;;
48623;SDS011;34422;45.802;16.114;2022-10-10T03:22:18;6.88;;;3.15;;
48623;SDS011;34422;45.802;16.114;2022-10-10T03:24:45;7.65;;;3.10;;
48623;SDS011;34422;45.802;16.114;2022-10-10T03:27:12;4.70;;;2.38;;
48623;SDS011;34422;45.802;16.114;2022-10-10T03:29:39;11.43;;;3.20;;
48623;SDS011;34422;45.802;16.114;2022-10-10T03:32:06;6.63;;;3.28;;
48623;SDS011;34422;45.802;16.114;2022-10-10T03:34:33;7.55;;;3.70;;
48623;SDS011;34422;45.802;16.114;2022-10-10T03:37:00;8.43;;;3.40;;
48623;SDS011;34422;45.802;16.114;2022-10-10T03:39:26;8.38;;;3.55;;
48623;SDS011;34422;45.802;16.114;2022-10-10T03:41:53;9.57;;;3.85;;
48623;SDS011;34422;45.802;16.114;2022-10-10T03:44:20;6.90;;;3.65;;
48623;SDS011;34422;45.802;16.114;2022-10-10T03:46:47;7.50;;;3.00;;
48623;SDS011;34422;45.802;16.114;2022-10-10T03:49:14;9.90;;;3.42;;
48623;SDS011;34422;45.802;16.114;2022-10-10T03:51:41;8.30;;;3.40;;
48623;SDS011;34422;45.802;16.114;2022-10-10T03:54:08;7.40;;;3.63;;
48623;SDS011;34422;45.802;16.114;2022-10-10T03:56:35;6.32;;;3.03;;
48623;SDS011;34422;45.802;16.114;2022-10-10T03:59:02;6.63;;;3.47;;
48623;SDS011;34422;45.802;16.114;2022-10-10T04:01:29;10.35;;;4.15;;
48623;SDS011;34422;45.802;16.114;2022-10-10T04:03:56;7.88;;;4.05;;
48623;SDS011;34422;45.802;16.114;2022-10-10T04:06:23;9.63;;;3.92;;
48623;SDS011;34422;45.802;16.114;2022-10-10T04:08:50;9.93;;;3.95;;
48623;SDS011;34422;45.802;16.114;2022-10-10T04:11:17;8.25;;;4.20;;
48623;SDS011;34422;45.802;16.114;2022-10-10T04:13:44;7.20;;;4.35;;
48623;SDS011;34422;45.802;16.114;2022-10-10T04:16:11;7.00;;;4.05;;
48623;SDS011;34422;45.802;16.114;2022-10-10T04:18:38;12.40;;;4.10;;
48623;SDS011;34422;45.802;16.114;2022-10-10T04:21:05;8.50;;;4.72;;
48623;SDS011;34422;45.802;16.114;2022-10-10T04:23:32;9.70;;;4.70;;
48623;SDS011;34422;45.802;16.114;2022-10-10T04:25:59;8.10;;;4.72;;
48623;SDS011;34422;45.802;16.114;2022-10-10T04:28:26;7.72;;;4.30;;
48623;SDS011;34422;45.802;16.114;2022-10-10T04:30:53;9.82;;;4.35;;
48623;SDS011;34422;45.802;16.114;2022-10-10T04:33:21;10.52;;;4.47;;
48623;SDS011;34422;45.802;16.114;2022-10-10T04:35:48;12.25;;;5.03;;
48623;SDS011;34422;45.802;16.114;2022-10-10T04:38:16;9.48;;;4.50;;
48623;SDS011;34422;45.802;16.114;2022-10-10T04:40:46;9.48;;;4.63;;
48623;SDS011;34422;45.802;16.114;2022-10-10T04:43:15;10.57;;;5.28;;
48623;SDS011;34422;45.802;16.114;2022-10-10T04:45:43;16.23;;;5.47;;
48623;SDS011;34422;45.802;16.114;2022-10-10T04:48:11;10.13;;;5.10;;
48623;SDS011;34422;45.802;16.114;2022-10-10T04:50:38;9.57;;;4.75;;
48623;SDS011;34422;45.802;16.114;2022-10-10T04:53:05;11.18;;;5.13;;
48623;SDS011;34422;45.802;16.114;2022-10-10T04:55:33;9.00;;;4.53;;
48623;SDS011;34422;45.802;16.114;2022-10-10T04:58:00;12.40;;;5.70;;
48623;SDS011;34422;45.802;16.114;2022-10-10T05:00:26;9.25;;;5.20;;
48623;SDS011;34422;45.802;16.114;2022-10-10T05:02:54;8.35;;;4.82;;
48623;SDS011;34422;45.802;16.114;2022-10-10T05:05:21;9.98;;;5.28;;
48623;SDS011;34422;45.802;16.114;2022-10-10T05:07:48;11.95;;;5.40;;
48623;SDS011;34422;45.802;16.114;2022-10-10T05:10:18;9.77;;;5.40;;
48623;SDS011;34422;45.802;16.114;2022-10-10T05:12:44;10.55;;;5.13;;
48623;SDS011;34422;45.802;16.114;2022-10-10T05:15:11;6.95;;;4.40;;
48623;SDS011;34422;45.802;16.114;2022-10-10T05:17:38;10.75;;;5.78;;
48623;SDS011;34422;45.802;16.114;2022-10-10T05:20:05;11.02;;;5.75;;
48623;SDS011;34422;45.802;16.114;2022-10-10T05:22:33;13.85;;;5.40;;
48623;SDS011;34422;45.802;16.114;2022-10-10T05:25:00;15.93;;;6.38;;
48623;SDS011;34422;45.802;16.114;2022-10-10T05:27:29;11.85;;;5.35;;
48623;SDS011;34422;45.802;16.114;2022-10-10T05:29:56;10.43;;;5.45;;
48623;SDS011;34422;45.802;16.114;2022-10-10T05:32:23;13.57;;;6.30;;
48623;SDS011;34422;45.802;16.114;2022-10-10T05:34:50;9.60;;;5.72;;
48623;SDS011;34422;45.802;16.114;2022-10-10T05:37:17;9.32;;;5.40;;
48623;SDS011;34422;45.802;16.114;2022-10-10T05:39:44;12.45;;;6.35;;
48623;SDS011;34422;45.802;16.114;2022-10-10T05:42:11;13.77;;;6.35;;
48623;SDS011;34422;45.802;16.114;2022-10-10T05:44:39;12.10;;;6.13;;
48623;SDS011;34422;45.802;16.114;2022-10-10T05:47:06;15.70;;;6.32;;
48623;SDS011;34422;45.802;16.114;2022-10-10T05:49:33;10.35;;;6.00;;
48623;SDS011;34422;45.802;16.114;2022-10-10T05:52:00;14.25;;;6.28;;
48623;SDS011;34422;45.802;16.114;2022-10-10T05:54:27;12.73;;;6.95;;
48623;SDS011;34422;45.802;16.114;2022-10-10T05:56:54;12.57;;;6.22;;
48623;SDS011;34422;45.802;16.114;2022-10-10T05:59:21;11.77;;;6.55;;
48623;SDS011;34422;45.802;16.114;2022-10-10T06:01:48;11.85;;;6.22;;
48623;SDS011;34422;45.802;16.114;2022-10-10T06:04:15;10.35;;;5.82;;
48623;SDS011;34422;45.802;16.114;2022-10-10T06:06:43;12.45;;;6.50;;
48623;SDS011;34422;45.802;16.114;2022-10-10T06:09:10;10.35;;;6.40;;
48623;SDS011;34422;45.802;16.114;2022-10-10T06:11:36;11.85;;;6.43;;
48623;SDS011;34422;45.802;16.114;2022-10-10T06:14:03;14.70;;;8.10;;
48623;SDS011;34422;45.802;16.114;2022-10-10T06:16:30;14.55;;;7.45;;
48623;SDS011;34422;45.802;16.114;2022-10-10T06:18:58;12.32;;;6.65;;
48623;SDS011;34422;45.802;16.114;2022-10-10T06:21:25;12.10;;;6.88;;
48623;SDS011;34422;45.802;16.114;2022-10-10T06:23:52;13.00;;;6.93;;
48623;SDS011;34422;45.802;16.114;2022-10-10T06:26:19;16.02;;;7.43;;
48623;SDS011;34422;45.802;16.114;2022-10-10T06:28:46;14.45;;;7.57;;
48623;SDS011;34422;45.802;16.114;2022-10-10T06:31:13;11.70;;;6.80;;
48623;SDS011;34422;45.802;16.114;2022-10-10T06:33:44;27.50;;;16.50;;
48623;SDS011;34422;45.802;16.114;2022-10-10T06:36:12;20.02;;;12.35;;
48623;SDS011;34422;45.802;16.114;2022-10-10T06:38:40;12.30;;;6.68;;
48623;SDS011;34422;45.802;16.114;2022-10-10T06:41:09;12.00;;;7.38;;
48623;SDS011;34422;45.802;16.114;2022-10-10T06:43:37;11.57;;;6.93;;
48623;SDS011;34422;45.802;16.114;2022-10-10T06:46:06;12.90;;;7.13;;
48623;SDS011;34422;45.802;16.114;2022-10-10T06:48:35;12.50;;;7.25;;
48623;SDS011;34422;45.802;16.114;2022-10-10T06:51:10;11.98;;;6.85;;
48623;SDS011;34422;45.802;16.114;2022-10-10T06:53:40;12.75;;;6.85;;
48623;SDS011;34422;45.802;16.114;2022-10-10T06:56:11;14.02;;;6.68;;
48623;SDS011;34422;45.802;16.114;2022-10-10T06:58:46;12.85;;;7.03;;
48623;SDS011;34422;45.802;16.114;2022-10-10T07:01:16;12.63;;;8.40;;
48623;SDS011;34422;45.802;16.114;2022-10-10T07:03:46;11.32;;;7.35;;
48623;SDS011;34422;45.802;16.114;2022-10-10T07:06:13;13.48;;;7.72;;
48623;SDS011;34422;45.802;16.114;2022-10-10T07:08:41;15.15;;;7.70;;
48623;SDS011;34422;45.802;16.114;2022-10-10T07:11:08;15.50;;;8.38;;
48623;SDS011;34422;45.802;16.114;2022-10-10T07:13:35;12.57;;;7.30;;
48623;SDS011;34422;45.802;16.114;2022-10-10T07:16:04;13.45;;;7.15;;
48623;SDS011;34422;45.802;16.114;2022-10-10T07:18:31;14.63;;;7.35;;
48623;SDS011;34422;45.802;16.114;2022-10-10T07:21:01;13.32;;;7.55;;
48623;SDS011;34422;45.802;16.114;2022-10-10T07:23:28;11.98;;;8.63;;
48623;SDS011;34422;45.802;16.114;2022-10-10T07:25:57;15.07;;;7.97;;
48623;SDS011;34422;45.802;16.114;2022-10-10T07:28:30;14.65;;;7.82;;
48623;SDS011;34422;45.802;16.114;2022-10-10T07:30:58;14.15;;;7.80;;
48623;SDS011;34422;45.802;16.114;2022-10-10T07:33:47;12.68;;;8.05;;
48623;SDS011;34422;45.802;16.114;2022-10-10T07:36:15;16.15;;;8.20;;
48623;SDS011;34422;45.802;16.114;2022-10-10T07:38:43;14.07;;;8.48;;
48623;SDS011;34422;45.802;16.114;2022-10-10T07:41:11;16.30;;;8.25;;
48623;SDS011;34422;45.802;16.114;2022-10-10T07:43:39;14.57;;;8.30;;
48623;SDS011;34422;45.802;16.114;2022-10-10T07:46:11;12.95;;;8.05;;
48623;SDS011;34422;45.802;16.114;2022-10-10T07:48:40;14.27;;;8.15;;
48623;SDS011;34422;45.802;16.114;2022-10-10T07:51:07;15.85;;;8.52;;
48623;SDS011;34422;45.802;16.114;2022-10-10T07:53:36;12.80;;;8.10;;
48623;SDS011;34422;45.802;16.114;2022-10-10T07:56:04;17.52;;;8.35;;
48623;SDS011;34422;45.802;16.114;2022-10-10T07:58:33;12.75;;;8.00;;
48623;SDS011;34422;45.802;16.114;2022-10-10T08:01:04;15.07;;;7.78;;
48623;SDS011;34422;45.802;16.114;2022-10-10T08:03:32;13.43;;;7.30;;
48623;SDS011;34422;45.802;16.114;2022-10-10T08:06:01;14.02;;;7.63;;
48623;SDS011;34422;45.802;16.114;2022-10-10T08:08:30;12.18;;;7.57;;
48623;SDS011;34422;45.802;16.114;2022-10-10T08:10:58;11.85;;;7.97;;
48623;SDS011;34422;45.802;16.114;2022-10-10T08:13:26;15.80;;;8.95;;
48623;SDS011;34422;45.802;16.114;2022-10-10T08:15:53;13.55;;;8.18;;
48623;SDS011;34422;45.802;16.114;2022-10-10T08:18:20;12.13;;;7.63;;
48623;SDS011;34422;45.802;16.114;2022-10-10T08:20:56;12.18;;;7.15;;
48623;SDS011;34422;45.802;16.114;2022-10-10T08:23:24;13.45;;;6.95;;
48623;SDS011;34422;45.802;16.114;2022-10-10T08:25:51;12.65;;;8.07;;
48623;SDS011;34422;45.802;16.114;2022-10-10T08:28:18;13.90;;;6.40;;
48623;SDS011;34422;45.802;16.114;2022-10-10T08:30:45;12.73;;;7.50;;
48623;SDS011;34422;45.802;16.114;2022-10-10T08:33:12;14.02;;;7.15;;
48623;SDS011;34422;45.802;16.114;2022-10-10T08:35:39;11.52;;;6.90;;
48623;SDS011;34422;45.802;16.114;2022-10-10T08:38:06;14.48;;;7.10;;
48623;SDS011;34422;45.802;16.114;2022-10-10T08:40:44;13.23;;;7.72;;
48623;SDS011;34422;45.802;16.114;2022-10-10T08:43:32;10.52;;;7.07;;
48623;SDS011;34422;45.802;16.114;2022-10-10T08:46:10;11.82;;;7.32;;
48623;SDS011;34422;45.802;16.114;2022-10-10T08:48:43;11.52;;;7.22;;
48623;SDS011;34422;45.802;16.114;2022-10-10T08:51:13;10.60;;;6.97;;
48623;SDS011;34422;45.802;16.114;2022-10-10T08:53:50;11.52;;;6.68;;
48623;SDS011;34422;45.802;16.114;2022-10-10T08:56:22;10.95;;;7.10;;
48623;SDS011;34422;45.802;16.114;2022-10-10T08:58:57;11.15;;;7.07;;
48623;SDS011;34422;45.802;16.114;2022-10-10T09:01:31;12.07;;;7.38;;
48623;SDS011;34422;45.802;16.114;2022-10-10T09:04:01;17.05;;;7.78;;
48623;SDS011;34422;45.802;16.114;2022-10-10T09:09:36;16.38;;;8.90;;
48623;SDS011;34422;45.802;16.114;2022-10-10T09:15:11;18.15;;;9.23;;
48623;SDS011;34422;45.802;16.114;2022-10-10T09:17:49;12.13;;;8.20;;
48623;SDS011;34422;45.802;16.114;2022-10-10T09:20:52;11.77;;;8.63;;
48623;SDS011;34422;45.802;16.114;2022-10-10T09:23:38;17.50;;;9.38;;
48623;SDS011;34422;45.802;16.114;2022-10-10T09:26:13;17.08;;;9.55;;
48623;SDS011;34422;45.802;16.114;2022-10-10T09:28:52;11.88;;;7.63;;
48623;SDS011;34422;45.802;16.114;2022-10-10T09:31:27;14.48;;;9.43;;
48623;SDS011;34422;45.802;16.114;2022-10-10T09:37:10;13.82;;;7.90;;
48623;SDS011;34422;45.802;16.114;2022-10-10T09:42:28;18.40;;;11.05;;
48623;SDS011;34422;45.802;16.114;2022-10-10T09:45:00;12.02;;;7.90;;
48623;SDS011;34422;45.802;16.114;2022-10-10T09:47:29;12.48;;;8.02;;
48623;SDS011;34422;45.802;16.114;2022-10-10T09:49:56;14.75;;;8.48;;
48623;SDS011;34422;45.802;16.114;2022-10-10T09:52:28;11.48;;;8.05;;
48623;SDS011;34422;45.802;16.114;2022-10-10T09:55:00;11.90;;;8.48;;
48623;SDS011;34422;45.802;16.114;2022-10-10T09:57:34;13.95;;;8.45;;
48623;SDS011;34422;45.802;16.114;2022-10-10T10:00:23;11.90;;;8.10;;
48623;SDS011;34422;45.802;16.114;2022-10-10T10:03:02;14.10;;;8.40;;
48623;SDS011;34422;45.802;16.114;2022-10-10T10:05:40;14.95;;;8.70;;
48623;SDS011;34422;45.802;16.114;2022-10-10T10:08:18;11.73;;;8.75;;
48623;SDS011;34422;45.802;16.114;2022-10-10T10:10:47;14.13;;;8.18;;
48623;SDS011;34422;45.802;16.114;2022-10-10T10:13:18;14.30;;;8.68;;
48623;SDS011;34422;45.802;16.114;2022-10-10T10:15:51;17.08;;;8.75;;
48623;SDS011;34422;45.802;16.114;2022-10-10T10:18:25;44.80;;;28.65;;
48623;SDS011;34422;45.802;16.114;2022-10-10T10:23:32;14.07;;;9.50;;
48623;SDS011;34422;45.802;16.114;2022-10-10T10:26:02;15.50;;;10.07;;
48623;SDS011;34422;45.802;16.114;2022-10-10T10:28:38;18.48;;;10.77;;
48623;SDS011;34422;45.802;16.114;2022-10-10T10:34:13;13.43;;;8.93;;
48623;SDS011;34422;45.802;16.114;2022-10-10T10:42:34;16.77;;;9.82;;
48623;SDS011;34422;45.802;16.114;2022-10-10T10:48:03;14.48;;;9.25;;
48623;SDS011;34422;45.802;16.114;2022-10-10T10:51:05;13.48;;;9.30;;
48623;SDS011;34422;45.802;16.114;2022-10-10T10:57:24;15.65;;;8.93;;
48623;SDS011;34422;45.802;16.114;2022-10-10T11:00:08;15.85;;;9.55;;
48623;SDS011;34422;45.802;16.114;2022-10-10T11:05:39;16.13;;;9.52;;
48623;SDS011;34422;45.802;16.114;2022-10-10T11:13:41;15.95;;;10.27;;
48623;SDS011;34422;45.802;16.114;2022-10-10T11:21:39;18.88;;;11.35;;
48623;SDS011;34422;45.802;16.114;2022-10-10T11:24:23;13.65;;;9.48;;
48623;SDS011;34422;45.802;16.114;2022-10-10T11:26:51;18.30;;;9.60;;
48623;SDS011;34422;45.802;16.114;2022-10-10T11:29:27;13.90;;;9.77;;
48623;SDS011;34422;45.802;16.114;2022-10-10T11:32:02;16.25;;;9.50;;
48623;SDS011;34422;45.802;16.114;2022-10-10T11:34:40;13.13;;;8.52;;
48623;SDS011;34422;45.802;16.114;2022-10-10T11:37:13;18.52;;;10.70;;
48623;SDS011;34422;45.802;16.114;2022-10-10T11:39:49;18.23;;;11.90;;
48623;SDS011;34422;45.802;16.114;2022-10-10T11:42:25;14.80;;;9.25;;
48623;SDS011;34422;45.802;16.114;2022-10-10T11:44:59;15.13;;;9.27;;
48623;SDS011;34422;45.802;16.114;2022-10-10T11:47:31;13.38;;;9.68;;
48623;SDS011;34422;45.802;16.114;2022-10-10T11:50:23;15.38;;;10.57;;
48623;SDS011;34422;45.802;16.114;2022-10-10T11:55:39;13.50;;;10.82;;
48623;SDS011;34422;45.802;16.114;2022-10-10T12:01:12;15.43;;;11.55;;
48623;SDS011;34422;45.802;16.114;2022-10-10T12:03:40;16.85;;;11.63;;
48623;SDS011;34422;45.802;16.114;2022-10-10T12:06:11;16.48;;;10.93;;
48623;SDS011;34422;45.802;16.114;2022-10-10T12:08:48;15.52;;;11.82;;
48623;SDS011;34422;45.802;16.114;2022-10-10T12:11:30;21.48;;;12.57;;
48623;SDS011;34422;45.802;16.114;2022-10-10T12:14:03;17.13;;;11.15;;
48623;SDS011;34422;45.802;16.114;2022-10-10T12:16:34;16.60;;;10.75;;
48623;SDS011;34422;45.802;16.114;2022-10-10T12:19:04;14.10;;;10.88;;
48623;SDS011;34422;45.802;16.114;2022-10-10T12:21:54;16.85;;;11.68;;
48623;SDS011;34422;45.802;16.114;2022-10-10T12:24:23;22.58;;;14.52;;
48623;SDS011;34422;45.802;16.114;2022-10-10T12:34:55;29.20;;;21.48;;
48623;SDS011;34422;45.802;16.114;2022-10-10T12:40:26;20.35;;;14.95;;
48623;SDS011;34422;45.802;16.114;2022-10-10T12:47:56;22.80;;;15.20;;
48623;SDS011;34422;45.802;16.114;2022-10-10T12:50:31;23.35;;;16.33;;
48623;SDS011;34422;45.802;16.114;2022-10-10T12:53:23;17.75;;;13.48;;
48623;SDS011;34422;45.802;16.114;2022-10-10T12:55:54;22.70;;;17.00;;
48623;SDS011;34422;45.802;16.114;2022-10-10T12:58:28;22.38;;;16.58;;
48623;SDS011;34422;45.802;16.114;2022-10-10T13:01:06;22.63;;;17.13;;
48623;SDS011;34422;45.802;16.114;2022-10-10T13:03:47;21.13;;;15.90;;
48623;SDS011;34422;45.802;16.114;2022-10-10T13:06:26;32.63;;;22.23;;
48623;SDS011;34422;45.802;16.114;2022-10-10T13:09:00;22.23;;;16.15;;
48623;SDS011;34422;45.802;16.114;2022-10-10T13:11:29;20.30;;;15.75;;
48623;SDS011;34422;45.802;16.114;2022-10-10T13:13:56;29.23;;;18.33;;
48623;SDS011;34422;45.802;16.114;2022-10-10T13:16:24;24.10;;;17.92;;
48623;SDS011;34422;45.802;16.114;2022-10-10T13:18:57;21.92;;;16.65;;
48623;SDS011;34422;45.802;16.114;2022-10-10T13:21:26;23.35;;;17.60;;
48623;SDS011;34422;45.802;16.114;2022-10-10T13:24:01;22.38;;;16.13;;
48623;SDS011;34422;45.802;16.114;2022-10-10T13:26:31;27.25;;;17.45;;
48623;SDS011;34422;45.802;16.114;2022-10-10T13:31:36;33.35;;;18.50;;
48623;SDS011;34422;45.802;16.114;2022-10-10T13:34:05;25.10;;;17.75;;
48623;SDS011;34422;45.802;16.114;2022-10-10T13:36:33;33.75;;;24.42;;
48623;SDS011;34422;45.802;16.114;2022-10-10T13:39:00;25.30;;;16.80;;
48623;SDS011;34422;45.802;16.114;2022-10-10T13:41:28;28.80;;;18.23;;
48623;SDS011;34422;45.802;16.114;2022-10-10T13:43:55;24.70;;;18.08;;
48623;SDS011;34422;45.802;16.114;2022-10-10T13:46:23;24.75;;;18.42;;
48623;SDS011;34422;45.802;16.114;2022-10-10T13:48:56;24.38;;;18.88;;
48623;SDS011;34422;45.802;16.114;2022-10-10T13:51:43;22.27;;;17.60;;
48623;SDS011;34422;45.802;16.114;2022-10-10T13:57:13;23.30;;;17.70;;
48623;SDS011;34422;45.802;16.114;2022-10-10T13:59:59;23.17;;;19.05;;
48623;SDS011;34422;45.802;16.114;2022-10-10T14:02:30;28.40;;;18.92;;
48623;SDS011;34422;45.802;16.114;2022-10-10T14:05:04;24.52;;;19.27;;
48623;SDS011;34422;45.802;16.114;2022-10-10T14:07:33;27.70;;;21.33;;
48623;SDS011;34422;45.802;16.114;2022-10-10T14:10:05;25.92;;;19.98;;
48623;SDS011;34422;45.802;16.114;2022-10-10T14:12:37;34.78;;;23.60;;
48623;SDS011;34422;45.802;16.114;2022-10-10T14:18:20;25.75;;;20.23;;
48623;SDS011;34422;45.802;16.114;2022-10-10T14:20:51;27.77;;;19.40;;
48623;SDS011;34422;45.802;16.114;2022-10-10T14:23:21;28.05;;;21.52;;
48623;SDS011;34422;45.802;16.114;2022-10-10T14:25:48;24.67;;;18.90;;
48623;SDS011;34422;45.802;16.114;2022-10-10T14:28:19;35.40;;;23.42;;
48623;SDS011;34422;45.802;16.114;2022-10-10T14:30:50;31.95;;;25.35;;
48623;SDS011;34422;45.802;16.114;2022-10-10T14:33:18;34.25;;;27.35;;
48623;SDS011;34422;45.802;16.114;2022-10-10T14:35:46;34.00;;;21.20;;
48623;SDS011;34422;45.802;16.114;2022-10-10T14:38:15;38.30;;;21.75;;
48623;SDS011;34422;45.802;16.114;2022-10-10T14:40:45;29.52;;;21.02;;
48623;SDS011;34422;45.802;16.114;2022-10-10T14:43:15;24.98;;;20.67;;
48623;SDS011;34422;45.802;16.114;2022-10-10T14:45:42;23.20;;;19.08;;
48623;SDS011;34422;45.802;16.114;2022-10-10T14:48:12;29.97;;;20.67;;
48623;SDS011;34422;45.802;16.114;2022-10-10T14:50:42;30.25;;;21.10;;
48623;SDS011;34422;45.802;16.114;2022-10-10T14:53:19;32.25;;;24.02;;
48623;SDS011;34422;45.802;16.114;2022-10-10T14:55:46;42.53;;;29.95;;
48623;SDS011;34422;45.802;16.114;2022-10-10T14:58:17;38.50;;;27.23;;
48623;SDS011;34422;45.802;16.114;2022-10-10T15:00:46;39.88;;;25.50;;
48623;SDS011;34422;45.802;16.114;2022-10-10T15:03:14;24.48;;;20.90;;
48623;SDS011;34422;45.802;16.114;2022-10-10T15:05:40;26.27;;;21.65;;
48623;SDS011;34422;45.802;16.114;2022-10-10T15:08:08;28.27;;;21.65;;
48623;SDS011;34422;45.802;16.114;2022-10-10T15:10:39;32.28;;;24.67;;
48623;SDS011;34422;45.802;16.114;2022-10-10T15:13:06;30.30;;;22.85;;
48623;SDS011;34422;45.802;16.114;2022-10-10T15:15:33;33.05;;;22.30;;
48623;SDS011;34422;45.802;16.114;2022-10-10T15:18:00;30.63;;;22.75;;
48623;SDS011;34422;45.802;16.114;2022-10-10T15:20:27;32.45;;;22.40;;
48623;SDS011;34422;45.802;16.114;2022-10-10T15:23:00;27.25;;;22.38;;
48623;SDS011;34422;45.802;16.114;2022-10-10T15:25:29;26.67;;;22.38;;
48623;SDS011;34422;45.802;16.114;2022-10-10T15:27:57;25.67;;;20.73;;
48623;SDS011;34422;45.802;16.114;2022-10-10T15:30:24;31.55;;;23.55;;
48623;SDS011;34422;45.802;16.114;2022-10-10T15:32:54;33.90;;;24.17;;
48623;SDS011;34422;45.802;16.114;2022-10-10T15:35:22;35.20;;;25.55;;
48623;SDS011;34422;45.802;16.114;2022-10-10T15:37:51;29.67;;;23.70;;
48623;SDS011;34422;45.802;16.114;2022-10-10T15:40:20;34.17;;;24.65;;
48623;SDS011;34422;45.802;16.114;2022-10-10T15:42:49;34.20;;;25.70;;
48623;SDS011;34422;45.802;16.114;2022-10-10T15:45:16;35.95;;;24.38;;
48623;SDS011;34422;45.802;16.114;2022-10-10T15:47:46;31.97;;;24.40;;
48623;SDS011;34422;45.802;16.114;2022-10-10T15:50:13;28.67;;;23.27;;
48623;SDS011;34422;45.802;16.114;2022-10-10T15:52:40;29.27;;;24.17;;
48623;SDS011;34422;45.802;16.114;2022-10-10T15:55:08;32.00;;;25.00;;
48623;SDS011;34422;45.802;16.114;2022-10-10T15:57:35;31.42;;;26.83;;
48623;SDS011;34422;45.802;16.114;2022-10-10T16:00:02;33.20;;;24.48;;
48623;SDS011;34422;45.802;16.114;2022-10-10T16:02:30;30.95;;;26.00;;
48623;SDS011;34422;45.802;16.114;2022-10-10T16:04:57;87.13;;;63.25;;
48623;SDS011;34422;45.802;16.114;2022-10-10T16:07:24;83.90;;;58.88;;
48623;SDS011;34422;45.802;16.114;2022-10-10T16:09:51;44.28;;;37.35;;
48623;SDS011;34422;45.802;16.114;2022-10-10T16:12:18;37.65;;;28.33;;
48623;SDS011;34422;45.802;16.114;2022-10-10T16:14:45;33.67;;;26.23;;